createdAt,value
2018-06-11T00:41:38.437Z,99.9
2018-06-11T00:42:45.375Z,99.9
2018-06-11T00:43:52.585Z,99.9
2018-06-11T00:44:59.797Z,99.9
2018-06-11T00:46:06.998Z,99.9
2018-06-11T00:47:14.207Z,99.9
2018-06-11T00:48:21.134Z,99.9
2018-06-11T00:49:28.338Z,99.9
2018-06-11T00:50:35.546Z,99.9
2018-06-11T00:51:42.757Z,99.9
2018-06-11T00:52:49.968Z,99.9
2018-06-11T00:53:57.181Z,99.9
2018-06-11T00:55:04.392Z,99.9
2018-06-11T00:56:11.596Z,99.9
2018-06-11T00:57:18.806Z,99.9
2018-06-11T00:58:26.008Z,99.9
2018-06-11T00:59:33.212Z,99.9
2018-06-11T01:00:40.421Z,99.9
2018-06-11T01:01:47.633Z,99.9
2018-06-11T01:02:54.834Z,99.9
2018-06-11T01:04:02.048Z,99.9
2018-06-11T01:05:09.258Z,99.9
2018-06-11T01:06:16.466Z,99.9
2018-06-11T01:07:23.676Z,99.9
2018-06-11T01:08:30.878Z,99.9
2018-06-11T01:09:38.090Z,99.9
2018-06-11T01:10:45.029Z,99.9
2018-06-11T01:11:52.234Z,99.9
2018-06-11T01:12:59.172Z,99.9
2018-06-11T01:14:06.376Z,99.9
2018-06-11T01:15:13.314Z,99.9
2018-06-11T01:16:20.517Z,99.9
2018-06-11T01:17:27.727Z,99.9
2018-06-11T01:18:34.668Z,99.9
2018-06-11T01:19:41.875Z,99.9
2018-06-11T01:21:55.990Z,99.9
2018-06-11T01:23:03.197Z,99.9
2018-06-11T01:24:10.407Z,99.9
2018-06-11T01:25:17.621Z,99.9
2018-06-11T01:26:24.824Z,99.9
2018-06-11T01:27:32.033Z,99.9
2018-06-11T01:28:39.248Z,99.9
2018-06-11T01:29:46.455Z,99.9
2018-06-11T01:30:53.664Z,99.9
2018-06-11T01:32:00.620Z,99.9
2018-06-11T01:33:07.825Z,99.9
2018-06-11T01:34:15.025Z,99.9
2018-06-11T01:35:21.967Z,99.9
2018-06-11T01:36:28.902Z,99.9
2018-06-11T01:37:36.105Z,99.9
2018-06-11T01:38:43.312Z,99.9
2018-06-11T01:39:50.516Z,99.9
2018-06-11T01:40:57.725Z,99.9
2018-06-11T01:42:04.956Z,99.9
2018-06-11T01:43:12.166Z,99.9
2018-06-11T01:44:19.367Z,99.9
2018-06-11T01:45:26.572Z,99.9
2018-06-11T01:46:33.779Z,99.9
2018-06-11T01:47:40.996Z,99.9
2018-06-11T01:48:48.203Z,99.9
2018-06-11T01:49:55.407Z,99.9
2018-06-11T01:51:02.614Z,99.9
2018-06-11T01:52:09.818Z,99.9
2018-06-11T01:53:17.029Z,99.9
2018-06-11T01:54:24.238Z,99.9
2018-06-11T01:55:31.457Z,99.9
2018-06-11T01:56:39.666Z,99.9
2018-06-11T01:57:47.866Z,99.9
2018-06-11T01:58:56.069Z,99.9
2018-06-11T02:00:03.276Z,99.9
2018-06-11T02:01:10.483Z,99.9
2018-06-11T02:02:17.689Z,99.9
2018-06-11T02:03:24.893Z,99.9
2018-06-11T02:04:32.101Z,99.9
2018-06-11T02:05:39.310Z,99.9
2018-06-11T02:06:46.252Z,99.9
2018-06-11T02:07:53.456Z,99.9
2018-06-11T02:09:00.392Z,99.9
2018-06-11T02:10:07.325Z,99.9
2018-06-11T02:11:14.532Z,99.9
2018-06-11T02:12:21.736Z,99.9
2018-06-11T02:13:28.941Z,99.9
2018-06-11T02:14:36.148Z,99.9
2018-06-11T02:15:43.363Z,99.9
2018-06-11T02:16:50.577Z,99.9
2018-06-11T02:17:57.782Z,99.9
2018-06-11T02:19:04.990Z,99.9
2018-06-11T02:20:12.200Z,99.9
2018-06-11T02:21:19.407Z,99.9
2018-06-11T02:22:26.345Z,99.9
2018-06-11T02:23:33.549Z,99.9
2018-06-11T02:24:40.772Z,99.9
2018-06-11T02:25:47.701Z,99.9
2018-06-11T02:26:54.910Z,99.9
2018-06-11T02:28:02.119Z,99.9
2018-06-11T02:29:09.326Z,99.9
2018-06-11T02:30:16.537Z,99.9
2018-06-11T02:31:23.744Z,99.9
2018-06-11T02:32:30.677Z,99.9
2018-06-11T02:33:38.099Z,99.9
2018-06-11T02:34:45.302Z,99.9
2018-06-11T02:35:52.510Z,99.9
2018-06-11T02:36:59.716Z,99.9
2018-06-11T02:38:06.924Z,99.9
2018-06-11T02:39:14.133Z,99.9
2018-06-11T02:40:21.064Z,99.9
2018-06-11T02:41:27.995Z,99.9
2018-06-11T02:42:34.658Z,99.9
2018-06-11T02:43:41.865Z,99.9
2018-06-11T02:44:49.075Z,99.9
2018-06-11T02:45:56.283Z,99.9
2018-06-11T02:47:03.487Z,99.9
2018-06-11T02:48:10.924Z,99.9
2018-06-11T02:49:18.133Z,99.9
2018-06-11T02:50:25.347Z,99.9
2018-06-11T02:51:32.559Z,99.9
2018-06-11T02:52:39.765Z,99.9
2018-06-11T02:53:46.972Z,99.9
2018-06-11T02:54:54.186Z,99.9
2018-06-11T02:56:01.390Z,99.9
2018-06-11T02:57:08.603Z,99.9
2018-06-11T02:58:15.819Z,99.9
2018-06-11T02:59:23.027Z,99.9
2018-06-11T03:00:30.246Z,99.9
2018-06-11T03:01:37.450Z,99.9
2018-06-11T03:02:44.657Z,99.9
2018-06-11T03:03:51.866Z,99.9
2018-06-11T03:04:59.074Z,99.9
2018-06-11T03:06:06.286Z,99.9
2018-06-11T03:07:13.490Z,99.9
2018-06-11T03:08:20.694Z,99.9
2018-06-11T03:09:27.905Z,99.9
2018-06-11T03:10:34.841Z,99.9
2018-06-11T03:11:42.054Z,99.9
2018-06-11T03:12:49.275Z,99.9
2018-06-11T03:13:56.484Z,99.9
2018-06-11T03:15:03.689Z,99.9
2018-06-11T03:16:10.899Z,99.9
2018-06-11T03:17:18.102Z,99.9
2018-06-11T03:18:25.308Z,99.9
2018-06-11T03:19:32.517Z,99.9
2018-06-11T03:20:39.724Z,99.9
2018-06-11T03:21:46.930Z,99.9
2018-06-11T03:22:54.140Z,99.9
2018-06-11T03:24:01.346Z,99.9
2018-06-11T06:25:44.909Z,99.9
2018-06-11T06:26:52.127Z,99.9
2018-06-11T06:27:59.337Z,99.9
2018-06-11T06:29:06.554Z,99.9
2018-06-11T06:30:13.495Z,99.9
2018-06-11T06:31:20.430Z,99.9
2018-06-11T06:32:27.639Z,99.9
2018-06-11T06:33:34.853Z,99.9
2018-06-11T06:34:42.111Z,99.9
2018-06-11T06:35:49.676Z,99.9
2018-06-11T06:36:56.886Z,99.9
2018-06-11T06:38:04.095Z,99.9
2018-06-11T06:39:11.034Z,99.9
2018-06-11T06:40:18.244Z,99.9
2018-06-11T06:41:25.455Z,99.9
2018-06-11T06:42:32.391Z,99.9
2018-06-11T06:43:39.599Z,99.9
2018-06-11T06:44:46.811Z,99.9
2018-06-11T06:45:54.018Z,99.9
2018-06-11T06:47:01.226Z,99.9
2018-06-11T06:48:08.170Z,99.9
2018-06-11T06:49:15.376Z,99.9
2018-06-11T06:50:22.585Z,99.9
2018-06-11T06:51:29.796Z,99.9
2018-06-11T06:52:37.007Z,99.9
2018-06-11T06:53:43.952Z,99.9
2018-06-11T06:54:51.373Z,99.9
2018-06-11T06:55:58.584Z,99.9
2018-06-11T06:57:05.802Z,99.9
2018-06-11T06:58:13.010Z,99.9
2018-06-11T06:59:20.222Z,99.9
2018-06-11T07:00:27.434Z,99.9
2018-06-11T07:01:34.647Z,99.9
2018-06-11T07:02:41.857Z,99.9
2018-06-11T07:03:49.070Z,99.9
2018-06-11T07:04:56.278Z,99.9
2018-06-11T07:06:03.486Z,99.9
2018-06-11T07:07:10.699Z,99.9
2018-06-11T07:08:17.906Z,99.9
2018-06-11T07:09:25.116Z,99.9
2018-06-11T07:10:32.326Z,99.9
2018-06-11T07:11:39.538Z,99.9
2018-06-11T07:12:46.751Z,99.9
2018-06-11T07:13:53.961Z,99.9
2018-06-11T07:15:01.169Z,99.9
2018-06-11T07:16:08.382Z,97.4
2018-06-11T07:17:15.590Z,99.9
2018-06-11T07:18:22.806Z,99.9
2018-06-11T07:19:30.021Z,99.9
2018-06-11T07:20:37.228Z,93.4
2018-06-11T07:21:44.443Z,93.9
2018-06-11T07:22:51.653Z,92.5
2018-06-11T07:23:58.859Z,92.3
2018-06-11T07:25:06.075Z,96.5
2018-06-11T07:26:13.291Z,95.2
2018-06-11T07:27:20.225Z,82.7
2018-06-11T07:28:27.439Z,92
2018-06-11T07:29:34.370Z,83.9
2018-06-11T07:30:41.579Z,86.8
2018-06-11T07:31:48.788Z,84.1
2018-06-11T07:32:55.998Z,90.2
2018-06-11T07:34:03.212Z,93.1
2018-06-11T07:35:10.425Z,85.4
2018-06-11T07:36:17.634Z,90.5
2018-06-11T07:37:24.569Z,93.9
2018-06-11T07:38:31.778Z,91
2018-06-11T07:39:38.988Z,87
2018-06-11T07:40:46.200Z,72.5
2018-06-11T07:41:53.413Z,89.1
2018-06-11T07:43:00.350Z,74.3
2018-06-11T07:44:07.564Z,80.2
2018-06-11T07:45:14.775Z,72.6
2018-06-11T07:46:21.991Z,90.7
2018-06-11T07:47:29.213Z,68.2
2018-06-11T07:48:36.424Z,68.2
2018-06-11T07:49:43.638Z,74
2018-06-11T09:27:22.514Z,86.6
2018-06-11T09:59:54.455Z,84.9
2018-06-11T10:01:01.669Z,48.7
2018-06-11T10:02:08.876Z,43.1
2018-06-11T10:03:16.095Z,45.4
2018-06-11T10:04:23.303Z,44.1
2018-06-11T10:05:30.514Z,45.8
2018-06-11T10:06:37.730Z,51
2018-06-11T10:07:44.940Z,37.6
2018-06-11T10:08:52.155Z,39.1
2018-06-11T10:09:59.101Z,28.4
2018-06-11T10:11:06.041Z,35
2018-06-11T10:12:13.283Z,37.9
2018-06-11T10:13:20.685Z,35
2018-06-11T10:14:27.901Z,39.6
2018-06-11T10:15:35.117Z,41.7
2018-06-11T10:16:42.324Z,44.8
2018-06-11T10:17:49.539Z,33.2
2018-06-11T10:18:56.752Z,38.8
2018-06-11T10:20:03.965Z,38.7
2018-06-11T10:21:11.184Z,30.8
2018-06-11T10:22:18.403Z,26.2
2018-06-11T10:23:25.615Z,29.2
2018-06-11T10:24:32.833Z,30.8
2018-06-11T10:25:40.044Z,31.6
2018-06-11T10:26:46.982Z,36.1
2018-06-11T10:27:54.190Z,36.8
2018-06-11T10:29:01.418Z,38.4
2018-06-11T10:30:08.628Z,39.6
2018-06-11T10:31:15.565Z,35
2018-06-11T10:32:22.869Z,29.6
2018-06-11T10:33:29.881Z,27.9
2018-06-11T10:34:37.095Z,30.2
2018-06-11T10:35:44.309Z,30.9
2018-06-11T10:36:51.527Z,31.7
2018-06-11T10:37:58.462Z,32.3
2018-06-11T10:39:05.706Z,27.8
2018-06-11T10:40:13.042Z,28.8
2018-06-11T10:41:20.257Z,23.4
2018-06-11T10:42:27.468Z,27.3
2018-06-11T10:43:34.403Z,28.6
2018-06-11T10:44:41.617Z,31.8
2018-06-11T10:45:48.833Z,26
2018-06-11T10:46:55.769Z,35
2018-06-11T10:48:02.701Z,37.4
2018-06-11T10:49:09.634Z,43.9
2018-06-11T10:50:16.846Z,39.8
2018-06-11T10:51:24.059Z,36.2
2018-06-11T10:52:31.271Z,39.4
2018-06-11T10:53:38.492Z,41.8
2018-06-11T10:54:45.434Z,46.5
2018-06-11T10:55:52.650Z,42.9
2018-06-11T10:56:59.871Z,48.3
2018-06-11T10:58:07.199Z,47.6
2018-06-11T10:59:14.663Z,59.1
2018-06-11T11:00:21.877Z,45.8
2018-06-11T11:01:29.094Z,42.8
2018-06-11T11:02:36.313Z,47
2018-06-11T11:03:43.529Z,47.6
2018-06-11T11:04:50.742Z,41
2018-06-11T11:05:57.956Z,45.6
2018-06-11T11:07:05.170Z,40.6
2018-06-11T11:08:12.428Z,43.5
2018-06-11T17:07:07.487Z,54.9
2018-06-11T17:08:14.425Z,99.9
2018-06-11T17:09:21.648Z,99.9
2018-06-11T17:10:28.861Z,99.9
2018-06-11T17:11:35.801Z,99.9
2018-06-11T17:12:42.460Z,99.9
2018-06-11T17:13:49.402Z,99.9
2018-06-11T17:14:56.335Z,99.9
2018-06-11T17:16:03.611Z,99.9
2018-06-11T17:17:10.488Z,99.9
2018-06-11T17:18:17.693Z,99.9
2018-06-11T17:19:24.901Z,99.9
2018-06-11T17:20:32.113Z,99.9
2018-06-11T17:21:39.325Z,99.9
2018-06-11T17:22:46.534Z,99.9
2018-06-11T17:23:53.743Z,99.9
2018-06-11T17:25:00.963Z,99.9
2018-06-11T17:26:08.177Z,99.9
2018-06-11T17:27:15.390Z,99.9
2018-06-11T17:28:22.607Z,99.9
2018-06-11T17:29:29.819Z,99.9
2018-06-11T17:30:37.030Z,99.9
2018-06-11T17:31:44.268Z,99.9
2018-06-11T17:32:51.559Z,99.9
2018-06-11T17:33:58.800Z,99.9
2018-06-11T17:35:05.750Z,99.9
2018-06-11T17:36:12.962Z,99.9
2018-06-11T17:37:20.165Z,99.9
2018-06-11T17:38:27.382Z,99.9
2018-06-11T17:39:34.320Z,99.9
2018-06-11T17:40:41.531Z,99.9
2018-06-11T17:41:48.751Z,99.9
2018-06-11T17:42:55.967Z,99.9
2018-06-11T17:44:03.191Z,99.9
2018-06-11T17:45:10.408Z,99.9
2018-06-11T17:46:17.344Z,99.9
2018-06-11T17:47:24.556Z,99.9
2018-06-11T17:48:31.795Z,99.9
2018-06-11T17:49:39.007Z,99.9
2018-06-11T17:50:45.968Z,99.9
2018-06-11T17:51:53.182Z,99.9
2018-06-11T17:53:00.417Z,99.9
2018-06-11T17:54:07.363Z,99.9
2018-06-11T17:55:14.597Z,99.9
2018-06-11T17:56:21.828Z,99.9
2018-06-11T17:57:28.835Z,99.9
2018-06-11T17:58:36.570Z,99.9
2018-06-11T17:59:43.873Z,99.9
2018-06-11T18:00:50.842Z,99.9
2018-06-11T18:01:58.054Z,99.9
2018-06-11T18:03:05.297Z,99.9
2018-06-11T18:04:12.621Z,99.9
2018-06-11T18:05:20.123Z,99.9
2018-06-11T18:06:27.643Z,99.9
2018-06-11T18:07:34.873Z,99.9
2018-06-11T18:08:42.095Z,99.9
2018-06-11T18:09:49.054Z,99.9
2018-06-11T18:10:56.280Z,99.9
2018-06-11T18:12:03.516Z,99.9
2018-06-11T18:13:10.468Z,99.9
2018-06-11T18:14:17.696Z,99.9
2018-06-11T18:15:24.926Z,99.9
2018-06-11T18:16:32.161Z,99.9
2018-06-11T18:17:39.392Z,99.9
2018-06-11T18:18:46.621Z,99.9
2018-06-11T18:19:53.852Z,99.9
2018-06-11T18:21:01.088Z,99.9
2018-06-11T18:22:08.322Z,99.9
2018-06-11T18:23:15.268Z,99.9
2018-06-11T18:24:22.500Z,99.9
2018-06-11T18:25:29.723Z,99.9
2018-06-11T18:26:36.953Z,99.9
2018-06-11T18:27:44.180Z,99.9
2018-06-11T18:28:51.399Z,99.9
2018-06-11T18:29:58.627Z,99.9
2018-06-11T18:31:06.114Z,99.9
2018-06-11T18:32:13.534Z,99.9
2018-06-11T18:33:20.753Z,99.9
2018-06-11T18:34:27.977Z,99.9
2018-06-11T18:35:35.243Z,99.9
2018-06-11T18:36:42.437Z,99.9
2018-06-11T18:37:49.673Z,99.9
2018-06-11T18:38:56.912Z,99.9
2018-06-11T18:40:04.151Z,99.9
2018-06-11T18:41:11.387Z,99.9
2018-06-11T18:42:18.341Z,99.9
2018-06-11T18:43:25.589Z,99.9
2018-06-11T18:44:32.827Z,99.9
2018-06-11T18:45:40.067Z,99.9
2018-06-11T18:46:47.035Z,99.9
2018-06-11T18:47:53.993Z,99.9
2018-06-11T18:49:01.233Z,99.9
2018-06-11T18:50:08.681Z,99.9
2018-06-11T18:51:16.127Z,99.9
2018-06-11T18:52:23.099Z,99.9
2018-06-11T18:53:30.345Z,99.9
2018-06-11T18:54:37.578Z,99.9
2018-06-11T18:55:44.817Z,99.9
2018-06-11T18:56:52.043Z,99.9
2018-06-11T18:57:59.286Z,99.9
2018-06-11T18:59:06.511Z,99.9
2018-06-11T19:00:13.735Z,99.9
2018-06-11T19:01:20.979Z,99.9
2018-06-11T19:02:28.382Z,99.9
2018-06-11T19:03:35.619Z,99.9
2018-06-11T19:04:42.597Z,99.9
2018-06-11T19:05:49.916Z,99.9
2018-06-11T19:06:57.138Z,99.9
2018-06-11T19:08:04.315Z,99.9
2018-06-11T19:09:11.751Z,99.9
2018-06-11T19:10:18.982Z,99.9
2018-06-11T19:11:26.220Z,99.9
2018-06-11T19:12:33.456Z,99.9
2018-06-11T19:13:40.697Z,99.9
2018-06-11T19:14:47.883Z,99.9
2018-06-11T19:15:54.832Z,99.9
2018-06-11T19:17:02.055Z,99.9
2018-06-11T19:18:09.010Z,99.9
2018-06-11T19:19:16.240Z,99.9
2018-06-11T19:20:23.471Z,99.9
2018-06-11T19:21:30.699Z,99.9
2018-06-11T19:22:37.926Z,99.9
2018-06-11T19:23:45.159Z,99.9
2018-06-11T19:24:52.387Z,99.9
2018-06-11T19:25:59.626Z,99.9
2018-06-11T19:27:06.874Z,99.9
2018-06-11T19:28:14.098Z,99.9
2018-06-11T19:29:21.332Z,99.9
2018-06-11T19:30:28.554Z,99.9
2018-06-11T19:31:35.993Z,99.9
2018-06-11T19:32:43.231Z,99.9
2018-06-11T19:33:51.016Z,99.9
2018-06-11T19:34:58.315Z,99.9
2018-06-11T19:36:05.712Z,99.9
2018-06-11T19:37:12.943Z,99.9
2018-06-11T19:38:20.202Z,99.9
2018-06-11T19:39:27.553Z,99.9
2018-06-11T19:40:34.769Z,99.9
2018-06-11T19:41:41.993Z,99.9
2018-06-11T19:42:49.223Z,99.9
2018-06-11T19:43:56.614Z,99.9
2018-06-11T19:45:03.841Z,99.9
2018-06-11T19:46:11.064Z,99.9
2018-06-11T19:47:18.294Z,99.9
2018-06-11T19:48:25.526Z,99.9
2018-06-11T19:49:32.485Z,99.9
2018-06-11T19:50:39.709Z,99.9
2018-06-11T19:51:46.945Z,99.9
2018-06-11T19:52:54.168Z,99.9
2018-06-11T19:54:01.387Z,99.9
2018-06-11T19:55:08.613Z,99.9
2018-06-11T19:56:15.873Z,99.9
2018-06-11T19:57:23.106Z,99.9
2018-06-11T19:58:30.494Z,99.9
2018-06-11T19:59:37.725Z,99.9
2018-06-11T20:00:44.968Z,99.9
2018-06-11T20:01:52.192Z,99.9
2018-06-11T20:02:59.416Z,99.9
2018-06-11T20:04:06.635Z,99.9
2018-06-11T20:05:14.090Z,99.9
2018-06-11T20:06:21.471Z,99.9
2018-06-11T20:07:28.698Z,99.9
2018-06-11T20:08:35.931Z,99.9
2018-06-11T20:09:43.163Z,99.9
2018-06-11T20:10:50.115Z,99.9
2018-06-11T20:11:57.338Z,99.9
2018-06-11T20:13:04.299Z,99.9
2018-06-11T20:14:11.538Z,99.9
2018-06-11T20:15:18.770Z,99.9
2018-06-11T20:16:26.000Z,99.9
2018-06-11T20:17:32.946Z,99.9
2018-06-11T20:18:40.201Z,99.9
2018-06-11T20:19:47.432Z,99.9
2018-06-11T22:00:05.301Z,99.9
2018-06-11T22:01:12.506Z,99.9
2018-06-11T22:02:19.713Z,99.9
2018-06-11T22:03:26.996Z,99.9
2018-06-11T22:04:34.526Z,99.9
2018-06-11T22:05:41.741Z,99.9
2018-06-11T22:06:48.706Z,99.9
2018-06-11T22:07:55.680Z,99.9
2018-06-11T22:09:02.903Z,99.9
2018-06-11T22:10:10.110Z,99.9
2018-06-11T22:11:17.324Z,99.9
2018-06-11T22:12:24.533Z,99.9
2018-06-11T22:13:31.743Z,99.9
2018-06-11T22:14:38.684Z,99.9
2018-06-11T22:15:45.891Z,99.9
2018-06-11T22:16:53.096Z,99.9
2018-06-11T22:18:00.300Z,99.9
2018-06-11T22:19:07.513Z,99.9
2018-06-11T22:20:14.449Z,99.9
2018-06-11T22:21:21.653Z,99.9
2018-06-11T22:22:28.864Z,99.9
2018-06-11T22:23:36.068Z,99.9
2018-06-11T22:24:43.281Z,99.9
2018-06-11T22:25:50.216Z,99.9
2018-06-11T22:26:57.428Z,99.9
2018-06-11T22:28:04.636Z,99.9
2018-06-11T22:29:11.840Z,99.9
2018-06-11T22:30:19.105Z,99.9
2018-06-11T22:31:26.461Z,99.9
2018-06-11T22:32:33.670Z,99.9
2018-06-11T22:33:40.883Z,99.9
2018-06-11T22:34:48.088Z,99.9
2018-06-11T22:35:55.299Z,99.9
2018-06-11T22:37:02.511Z,99.9
2018-06-11T22:38:09.724Z,99.9
2018-06-11T22:39:16.941Z,99.9
2018-06-11T22:40:24.151Z,99.9
2018-06-11T22:41:31.421Z,99.9
2018-06-11T22:42:38.797Z,99.9
2018-06-11T22:43:46.032Z,99.9
2018-06-11T22:44:53.246Z,99.9
2018-06-11T22:46:00.456Z,99.9
2018-06-11T22:47:07.388Z,99.9
2018-06-11T22:48:14.591Z,99.9
2018-06-11T22:49:21.799Z,99.9
2018-06-11T22:50:29.007Z,99.9
2018-06-11T22:51:36.216Z,99.9
2018-06-11T22:52:43.425Z,99.9
2018-06-11T22:53:50.080Z,99.9
2018-06-11T22:54:57.290Z,99.9
2018-06-11T22:56:04.497Z,99.9
2018-06-11T22:57:11.434Z,99.9
2018-06-11T22:58:18.644Z,99.9
2018-06-11T22:59:25.848Z,99.9
2018-06-11T23:00:33.056Z,99.9
2018-06-11T23:01:40.259Z,99.9
2018-06-11T23:02:47.470Z,99.9
2018-06-11T23:03:54.680Z,99.9
2018-06-11T23:05:01.894Z,99.9
2018-06-11T23:06:08.831Z,99.9
2018-06-11T23:07:16.032Z,99.9
2018-06-11T23:08:23.240Z,99.9
2018-06-11T23:09:30.444Z,99.9
2018-06-11T23:10:37.657Z,99.9
2018-06-11T23:11:44.868Z,99.9
2018-06-11T23:12:52.080Z,99.9
2018-06-11T23:13:59.292Z,99.9
2018-06-11T23:15:06.506Z,99.9
2018-06-11T23:16:13.711Z,99.9
2018-06-11T23:17:20.916Z,99.9
2018-06-11T23:18:27.858Z,99.9
2018-06-11T23:19:35.060Z,99.9
2018-06-11T23:20:41.994Z,99.9
2018-06-11T23:21:49.200Z,99.9
2018-06-11T23:22:56.416Z,99.9
2018-06-11T23:24:03.676Z,99.9
2018-06-11T23:25:11.007Z,99.9
2018-06-11T23:26:18.215Z,99.9
2018-06-11T23:27:25.150Z,99.9
2018-06-11T23:28:32.357Z,99.9
2018-06-11T23:29:39.291Z,99.9
2018-06-11T23:30:46.494Z,99.9
2018-06-11T23:31:53.700Z,99.9
2018-06-11T23:33:00.909Z,99.9
2018-06-11T23:34:08.116Z,99.9
2018-06-11T23:35:15.057Z,99.9
2018-06-11T23:36:21.991Z,99.9
2018-06-11T23:37:29.199Z,99.9
2018-06-11T23:38:36.406Z,99.9
2018-06-11T23:39:43.611Z,99.9
2018-06-11T23:40:50.818Z,99.9
2018-06-11T23:41:58.027Z,99.9
2018-06-11T23:43:05.231Z,99.9
2018-06-11T23:44:12.163Z,99.9
2018-06-11T23:45:19.367Z,99.9
2018-06-11T23:46:26.578Z,99.9
2018-06-11T23:47:33.792Z,99.9
2018-06-11T23:48:41.007Z,99.9
2018-06-11T23:49:48.216Z,99.9
2018-06-11T23:50:55.423Z,99.9
2018-06-11T23:52:02.629Z,99.9
2018-06-11T23:53:09.839Z,99.9
2018-06-11T23:54:17.047Z,99.9
2018-06-11T23:55:24.265Z,99.9
2018-06-11T23:56:31.485Z,99.9
2018-06-11T23:57:38.691Z,99.9
2018-06-11T23:58:45.900Z,99.9
2018-06-11T23:59:52.835Z,99.9
